Joint Base Pearl Harbor Hickam, HI (96853)

1:39 PM HST on February 06, 2016 (GMT -1000)
Mokulele Elementary | | Change Station
CLOSE
Current Station
Personal Weather Station
Location: Honolulu, HI
Elevation: 23 ft
Nearby Weather Stations
Active Advisory: Wind Advisory Active Notice: Record Report

Elev 23 ft 21.34 °N, 157.94 °W | Updated 11 seconds ago

Mostly Cloudy
Mostly Cloudy
77.0 °F
Feels Like 79 °F
N
0.0
Wind Variable Wind from SSW
Gusts 0.0 mph

Today
High -- | Low -- °F
--% Chance of Precip.
Yesterday
High -- | Low -- °F
Precip. -- in
Pressure 29.96 in
Visibility 10.0 miles
Clouds Few 2800 ft
Scattered Clouds 4900 ft
Mostly Cloudy 8000 ft
Heat Index 79 °F
Dew Point 66 °F
Humidity 69%
Rainfall 0.00 in
Snow Depth Not available.
7:07 AM 6:24 PM
Waning Crescent, 3% visible
METAR PHNL 062253Z 16005KT 10SM FEW028 SCT049 BKN080 23/19 A2996 RMK AO2 SLP145 T02330194
Pressure 29.96 in
Visibility 10.0 miles
Clouds Few 2800 ft
Scattered Clouds 4900 ft
Mostly Cloudy 8000 ft
Heat Index 79 °F
Dew Point 66 °F
Humidity 69%
Rainfall 0.00 in
Snow Depth Not available.
7:07 AM 6:24 PM
Waning Crescent, 3% visible
METAR PHNL 062253Z 16005KT 10SM FEW028 SCT049 BKN080 23/19 A2996 RMK AO2 SLP145 T02330194

10-Day Weather Forecast

Almanac

Astronomy

Feb. 06, 2016 Rise Set
Actual Time
Civil Twilight
Nautical Twilight
Astronomical Twilight
Moon
Length of Visible Light
Length of Day
Tomorrow will be .
, % of the Moon is Illuminated

Today's Extremes

State Highs State Lows

Community

WunderPhotos

Upload Photos

1,891,098 photos uploaded!

WunderBlog® & News

Nearby

Air Quality

  Air Quality AQ Index Pollutant
Not available.

Snow Depth

Station Depth Elevation

Earthquake Activity

City Distance Mag. Time & Date
Minimum magnitude displayed is 2.5.

Coastal Water Temperatures

Place Temperature

Stations

Nearby Weather Stations

Station Location Temp. Windchill Dew Point Humidity Wind Precip. Elev Updated Type
                   

Watches & Warnings

Wind Advisory
Issued: 9:28 AM HST Feb. 6, 2016 – National Weather Service

... Wind Advisory now in effect from 8 PM this evening to noon HST
Sunday...

* timing... late this evening through Sunday morning.

* Winds... along and behind a front... north winds up to 30 mph with
localized gusts up to 50 mph. Winds will be strongest over and
downwind of higher terrain.

* Impacts... motorists... especially those in high profile
vehicles... are urged to drive with extreme caution.
Lightweight outdoor objects may be blown around... and should
be secured before winds increase.

Precautionary/preparedness actions...

A Wind Advisory means that sustained winds of at least 30 mph...
or gusts of at least 50 mph... are expected. Motorists should use
extra caution.